sensor_id;sensor_type;location;lat;lon;timestamp;temperature;humidity
14877;DHT22;22152;48.158;17.118;2022-12-18T00:01:12;0.20;67.60
14877;DHT22;22152;48.158;17.118;2022-12-18T00:03:42;0.20;67.70
14877;DHT22;22152;48.158;17.118;2022-12-18T00:06:09;0.20;67.70
14877;DHT22;22152;48.158;17.118;2022-12-18T00:08:35;0.10;67.70
14877;DHT22;22152;48.158;17.118;2022-12-18T00:11:07;0.10;68.00
14877;DHT22;22152;48.158;17.118;2022-12-18T00:13:35;0.00;68.20
14877;DHT22;22152;48.158;17.118;2022-12-18T00:16:06;0.00;68.30
14877;DHT22;22152;48.158;17.118;2022-12-18T00:18:33;-0.10;68.40
14877;DHT22;22152;48.158;17.118;2022-12-18T00:21:00;-0.10;68.60
14877;DHT22;22152;48.158;17.118;2022-12-18T00:23:29;-0.10;68.70
14877;DHT22;22152;48.158;17.118;2022-12-18T00:25:59;-0.10;68.80
14877;DHT22;22152;48.158;17.118;2022-12-18T00:28:25;-0.20;69.10
14877;DHT22;22152;48.158;17.118;2022-12-18T00:31:01;-0.20;69.10
14877;DHT22;22152;48.158;17.118;2022-12-18T00:33:27;-0.10;69.20
14877;DHT22;22152;48.158;17.118;2022-12-18T00:35:53;-0.20;69.00
14877;DHT22;22152;48.158;17.118;2022-12-18T00:38:19;-0.20;69.90
14877;DHT22;22152;48.158;17.118;2022-12-18T00:40:45;-0.30;69.40
14877;DHT22;22152;48.158;17.118;2022-12-18T00:43:12;-0.30;69.90
14877;DHT22;22152;48.158;17.118;2022-12-18T00:45:37;-0.40;70.20
14877;DHT22;22152;48.158;17.118;2022-12-18T00:48:04;-0.40;70.60
14877;DHT22;22152;48.158;17.118;2022-12-18T00:50:30;-0.50;70.80
14877;DHT22;22152;48.158;17.118;2022-12-18T00:52:56;-0.50;71.10
14877;DHT22;22152;48.158;17.118;2022-12-18T00:55:22;-0.50;71.20
14877;DHT22;22152;48.158;17.118;2022-12-18T00:57:47;-0.50;71.50
14877;DHT22;22152;48.158;17.118;2022-12-18T01:00:16;-0.50;71.50
14877;DHT22;22152;48.158;17.118;2022-12-18T01:02:42;-0.50;71.40
14877;DHT22;22152;48.158;17.118;2022-12-18T01:05:12;-0.40;71.10
14877;DHT22;22152;48.158;17.118;2022-12-18T01:07:39;-0.40;70.70
14877;DHT22;22152;48.158;17.118;2022-12-18T01:10:06;-0.40;70.70
14877;DHT22;22152;48.158;17.118;2022-12-18T01:12:34;-0.40;70.70
14877;DHT22;22152;48.158;17.118;2022-12-18T01:15:01;-0.40;70.70
14877;DHT22;22152;48.158;17.118;2022-12-18T01:17:27;-0.50;70.90
14877;DHT22;22152;48.158;17.118;2022-12-18T01:19:53;-0.50;71.20
14877;DHT22;22152;48.158;17.118;2022-12-18T01:22:19;-0.50;72.00
14877;DHT22;22152;48.158;17.118;2022-12-18T01:24:45;-0.60;71.10
14877;DHT22;22152;48.158;17.118;2022-12-18T01:27:10;-0.60;71.40
14877;DHT22;22152;48.158;17.118;2022-12-18T01:29:36;-0.60;71.30
14877;DHT22;22152;48.158;17.118;2022-12-18T01:32:02;-0.60;71.40
14877;DHT22;22152;48.158;17.118;2022-12-18T01:34:29;-0.60;71.60
14877;DHT22;22152;48.158;17.118;2022-12-18T01:36:55;-0.60;71.60
14877;DHT22;22152;48.158;17.118;2022-12-18T01:39:20;-0.70;71.70
14877;DHT22;22152;48.158;17.118;2022-12-18T01:41:47;-0.70;71.70
14877;DHT22;22152;48.158;17.118;2022-12-18T01:49:52;-0.70;71.50
14877;DHT22;22152;48.158;17.118;2022-12-18T01:52:19;-0.70;71.40
14877;DHT22;22152;48.158;17.118;2022-12-18T01:54:47;-0.70;71.40
14877;DHT22;22152;48.158;17.118;2022-12-18T01:57:14;-0.70;71.70
14877;DHT22;22152;48.158;17.118;2022-12-18T01:59:42;-0.70;71.70
14877;DHT22;22152;48.158;17.118;2022-12-18T02:02:09;-0.80;71.70
14877;DHT22;22152;48.158;17.118;2022-12-18T02:04:36;-0.70;71.80
14877;DHT22;22152;48.158;17.118;2022-12-18T02:07:14;-0.70;71.70
14877;DHT22;22152;48.158;17.118;2022-12-18T02:09:58;-0.80;72.00
14877;DHT22;22152;48.158;17.118;2022-12-18T02:15:14;-0.80;73.00
14877;DHT22;22152;48.158;17.118;2022-12-18T02:17:54;-0.90;72.10
14877;DHT22;22152;48.158;17.118;2022-12-18T02:20:32;-0.80;72.00
14877;DHT22;22152;48.158;17.118;2022-12-18T02:26:22;-0.80;71.70
14877;DHT22;22152;48.158;17.118;2022-12-18T02:31:45;-0.90;71.80
14877;DHT22;22152;48.158;17.118;2022-12-18T02:34:16;-0.90;71.80
14877;DHT22;22152;48.158;17.118;2022-12-18T02:36:46;-0.90;71.70
14877;DHT22;22152;48.158;17.118;2022-12-18T02:39:13;-0.90;71.80
14877;DHT22;22152;48.158;17.118;2022-12-18T02:41:50;-0.90;71.80
14877;DHT22;22152;48.158;17.118;2022-12-18T02:44:18;-0.90;71.90
14877;DHT22;22152;48.158;17.118;2022-12-18T02:46:52;-1.00;71.80
14877;DHT22;22152;48.158;17.118;2022-12-18T02:52:45;-1.00;71.90
14877;DHT22;22152;48.158;17.118;2022-12-18T03:03:56;-1.20;72.80
14877;DHT22;22152;48.158;17.118;2022-12-18T03:06:39;-1.20;72.80
14877;DHT22;22152;48.158;17.118;2022-12-18T03:09:10;-1.20;72.60
14877;DHT22;22152;48.158;17.118;2022-12-18T03:11:41;-1.20;72.50
14877;DHT22;22152;48.158;17.118;2022-12-18T03:14:33;-1.20;72.50
14877;DHT22;22152;48.158;17.118;2022-12-18T03:17:02;-1.30;72.40
14877;DHT22;22152;48.158;17.118;2022-12-18T03:19:32;-1.30;72.60
14877;DHT22;22152;48.158;17.118;2022-12-18T03:22:03;-1.30;73.10
14877;DHT22;22152;48.158;17.118;2022-12-18T03:24:39;-1.30;73.40
14877;DHT22;22152;48.158;17.118;2022-12-18T03:27:09;-1.30;73.20
14877;DHT22;22152;48.158;17.118;2022-12-18T03:32:27;-1.40;73.00
14877;DHT22;22152;48.158;17.118;2022-12-18T03:35:00;-1.40;72.90
14877;DHT22;22152;48.158;17.118;2022-12-18T03:37:32;-1.40;73.10
14877;DHT22;22152;48.158;17.118;2022-12-18T03:39:59;-1.40;73.20
14877;DHT22;22152;48.158;17.118;2022-12-18T03:42:29;-1.50;73.30
14877;DHT22;22152;48.158;17.118;2022-12-18T03:48:07;-1.50;73.50
14877;DHT22;22152;48.158;17.118;2022-12-18T03:53:36;-1.50;73.30
14877;DHT22;22152;48.158;17.118;2022-12-18T03:56:09;-1.60;73.10
14877;DHT22;22152;48.158;17.118;2022-12-18T03:58:40;-1.60;73.30
14877;DHT22;22152;48.158;17.118;2022-12-18T04:01:17;-1.60;73.50
14877;DHT22;22152;48.158;17.118;2022-12-18T04:03:49;-1.70;73.40
14877;DHT22;22152;48.158;17.118;2022-12-18T04:06:17;-1.70;73.40
14877;DHT22;22152;48.158;17.118;2022-12-18T04:08:45;-1.70;73.50
14877;DHT22;22152;48.158;17.118;2022-12-18T04:11:15;-1.70;73.50
14877;DHT22;22152;48.158;17.118;2022-12-18T04:13:43;-1.70;73.60
14877;DHT22;22152;48.158;17.118;2022-12-18T04:16:16;-1.70;73.50
14877;DHT22;22152;48.158;17.118;2022-12-18T04:18:44;-1.70;73.50
14877;DHT22;22152;48.158;17.118;2022-12-18T04:21:10;-1.80;73.20
14877;DHT22;22152;48.158;17.118;2022-12-18T04:23:37;-1.80;73.50
14877;DHT22;22152;48.158;17.118;2022-12-18T04:26:03;-1.80;73.20
14877;DHT22;22152;48.158;17.118;2022-12-18T04:28:43;-1.70;73.20
14877;DHT22;22152;48.158;17.118;2022-12-18T04:31:09;-1.80;73.10
14877;DHT22;22152;48.158;17.118;2022-12-18T04:33:35;-1.80;73.00
14877;DHT22;22152;48.158;17.118;2022-12-18T04:36:02;-1.80;72.70
14877;DHT22;22152;48.158;17.118;2022-12-18T04:38:29;-1.80;72.50
14877;DHT22;22152;48.158;17.118;2022-12-18T04:41:02;-1.80;72.50
14877;DHT22;22152;48.158;17.118;2022-12-18T04:43:29;-1.90;72.30
14877;DHT22;22152;48.158;17.118;2022-12-18T04:46:04;-1.90;72.50
14877;DHT22;22152;48.158;17.118;2022-12-18T04:48:32;-2.00;72.90
14877;DHT22;22152;48.158;17.118;2022-12-18T04:50:58;-2.00;72.80
14877;DHT22;22152;48.158;17.118;2022-12-18T04:53:24;-2.00;72.70
14877;DHT22;22152;48.158;17.118;2022-12-18T04:55:50;-2.00;72.40
14877;DHT22;22152;48.158;17.118;2022-12-18T04:58:15;-2.00;72.10
14877;DHT22;22152;48.158;17.118;2022-12-18T05:00:41;-2.10;72.30
14877;DHT22;22152;48.158;17.118;2022-12-18T05:03:07;-2.10;71.90
14877;DHT22;22152;48.158;17.118;2022-12-18T05:05:35;-2.10;72.10
14877;DHT22;22152;48.158;17.118;2022-12-18T05:08:01;-2.10;72.30
14877;DHT22;22152;48.158;17.118;2022-12-18T05:10:27;-2.20;72.40
14877;DHT22;22152;48.158;17.118;2022-12-18T05:12:52;-2.20;72.60
14877;DHT22;22152;48.158;17.118;2022-12-18T05:15:34;-2.20;72.50
14877;DHT22;22152;48.158;17.118;2022-12-18T05:18:00;-2.20;72.70
14877;DHT22;22152;48.158;17.118;2022-12-18T05:20:27;-2.30;72.80
14877;DHT22;22152;48.158;17.118;2022-12-18T05:22:53;-2.30;72.80
14877;DHT22;22152;48.158;17.118;2022-12-18T05:25:20;-2.30;72.90
14877;DHT22;22152;48.158;17.118;2022-12-18T05:27:47;-2.30;72.90
14877;DHT22;22152;48.158;17.118;2022-12-18T05:30:13;-2.40;73.40
14877;DHT22;22152;48.158;17.118;2022-12-18T05:32:40;-2.40;72.60
14877;DHT22;22152;48.158;17.118;2022-12-18T05:35:08;-2.40;72.50
14877;DHT22;22152;48.158;17.118;2022-12-18T05:37:35;-2.40;72.20
14877;DHT22;22152;48.158;17.118;2022-12-18T05:40:02;-2.40;72.10
14877;DHT22;22152;48.158;17.118;2022-12-18T05:42:30;-2.50;72.50
14877;DHT22;22152;48.158;17.118;2022-12-18T05:44:56;-2.50;72.90
14877;DHT22;22152;48.158;17.118;2022-12-18T05:47:22;-2.50;73.10
14877;DHT22;22152;48.158;17.118;2022-12-18T05:49:47;-2.50;73.30
14877;DHT22;22152;48.158;17.118;2022-12-18T05:52:13;-2.40;73.50
14877;DHT22;22152;48.158;17.118;2022-12-18T05:54:39;-2.40;73.40
14877;DHT22;22152;48.158;17.118;2022-12-18T05:57:05;-2.40;73.10
14877;DHT22;22152;48.158;17.118;2022-12-18T05:59:31;-2.30;72.90
14877;DHT22;22152;48.158;17.118;2022-12-18T06:01:57;-2.30;72.80
14877;DHT22;22152;48.158;17.118;2022-12-18T06:04:23;-2.30;72.80
14877;DHT22;22152;48.158;17.118;2022-12-18T06:06:48;-2.30;72.60
14877;DHT22;22152;48.158;17.118;2022-12-18T06:09:14;-2.30;72.40
14877;DHT22;22152;48.158;17.118;2022-12-18T06:11:40;-2.40;73.20
14877;DHT22;22152;48.158;17.118;2022-12-18T06:14:06;-2.40;72.60
14877;DHT22;22152;48.158;17.118;2022-12-18T06:16:32;-2.50;72.80
14877;DHT22;22152;48.158;17.118;2022-12-18T06:19:00;-2.50;73.00
14877;DHT22;22152;48.158;17.118;2022-12-18T06:21:27;-2.50;73.10
14877;DHT22;22152;48.158;17.118;2022-12-18T06:23:53;-2.50;72.80
14877;DHT22;22152;48.158;17.118;2022-12-18T06:26:19;-2.50;73.00
14877;DHT22;22152;48.158;17.118;2022-12-18T06:28:45;-2.60;73.00
14877;DHT22;22152;48.158;17.118;2022-12-18T06:31:10;-2.60;73.00
14877;DHT22;22152;48.158;17.118;2022-12-18T06:33:37;-2.60;73.30
14877;DHT22;22152;48.158;17.118;2022-12-18T06:36:08;-2.60;73.30
14877;DHT22;22152;48.158;17.118;2022-12-18T06:38:37;-2.50;73.90
14877;DHT22;22152;48.158;17.118;2022-12-18T06:41:17;-2.50;73.70
14877;DHT22;22152;48.158;17.118;2022-12-18T06:43:44;-2.50;73.90
14877;DHT22;22152;48.158;17.118;2022-12-18T06:46:11;-2.50;73.80
14877;DHT22;22152;48.158;17.118;2022-12-18T06:48:37;-2.40;73.80
14877;DHT22;22152;48.158;17.118;2022-12-18T06:51:04;-2.40;73.70
14877;DHT22;22152;48.158;17.118;2022-12-18T06:53:31;-2.40;74.00
14877;DHT22;22152;48.158;17.118;2022-12-18T06:56:05;-2.40;74.10
14877;DHT22;22152;48.158;17.118;2022-12-18T06:58:32;-2.30;74.10
14877;DHT22;22152;48.158;17.118;2022-12-18T07:01:03;-2.30;74.00
14877;DHT22;22152;48.158;17.118;2022-12-18T07:03:31;-2.30;73.90
14877;DHT22;22152;48.158;17.118;2022-12-18T07:05:57;-2.20;74.10
14877;DHT22;22152;48.158;17.118;2022-12-18T07:08:23;-2.20;73.80
14877;DHT22;22152;48.158;17.118;2022-12-18T07:10:49;-2.20;73.70
14877;DHT22;22152;48.158;17.118;2022-12-18T07:13:15;-2.20;73.70
14877;DHT22;22152;48.158;17.118;2022-12-18T07:15:42;-2.10;73.80
14877;DHT22;22152;48.158;17.118;2022-12-18T07:18:09;-2.10;73.50
14877;DHT22;22152;48.158;17.118;2022-12-18T07:20:35;-2.00;73.30
14877;DHT22;22152;48.158;17.118;2022-12-18T07:23:04;-2.00;73.10
14877;DHT22;22152;48.158;17.118;2022-12-18T07:25:37;-2.00;73.20
14877;DHT22;22152;48.158;17.118;2022-12-18T07:28:03;-1.90;73.30
14877;DHT22;22152;48.158;17.118;2022-12-18T07:30:29;-1.90;73.10
14877;DHT22;22152;48.158;17.118;2022-12-18T07:32:55;-1.80;72.90
14877;DHT22;22152;48.158;17.118;2022-12-18T07:35:21;-1.80;73.10
14877;DHT22;22152;48.158;17.118;2022-12-18T07:37:47;-1.80;73.00
14877;DHT22;22152;48.158;17.118;2022-12-18T07:40:12;-1.70;73.30
14877;DHT22;22152;48.158;17.118;2022-12-18T07:42:38;-1.70;73.20
14877;DHT22;22152;48.158;17.118;2022-12-18T07:45:05;-1.60;73.20
14877;DHT22;22152;48.158;17.118;2022-12-18T07:47:31;-1.60;73.40
14877;DHT22;22152;48.158;17.118;2022-12-18T07:49:59;-1.50;73.30
14877;DHT22;22152;48.158;17.118;2022-12-18T07:52:25;-1.50;73.40
14877;DHT22;22152;48.158;17.118;2022-12-18T07:54:51;-1.40;73.50
14877;DHT22;22152;48.158;17.118;2022-12-18T07:57:17;-1.30;73.40
14877;DHT22;22152;48.158;17.118;2022-12-18T07:59:43;-1.30;73.40
14877;DHT22;22152;48.158;17.118;2022-12-18T08:02:09;-1.20;73.50
14877;DHT22;22152;48.158;17.118;2022-12-18T08:04:34;-1.10;73.50
14877;DHT22;22152;48.158;17.118;2022-12-18T08:07:00;-1.00;73.50
14877;DHT22;22152;48.158;17.118;2022-12-18T08:09:26;-0.90;73.70
14877;DHT22;22152;48.158;17.118;2022-12-18T08:11:52;-0.80;73.60
14877;DHT22;22152;48.158;17.118;2022-12-18T08:14:18;-0.80;73.90
14877;DHT22;22152;48.158;17.118;2022-12-18T08:16:43;-0.60;74.10
14877;DHT22;22152;48.158;17.118;2022-12-18T08:19:09;-0.50;74.00
14877;DHT22;22152;48.158;17.118;2022-12-18T08:21:35;-0.50;73.60
14877;DHT22;22152;48.158;17.118;2022-12-18T08:24:02;-0.40;74.30
14877;DHT22;22152;48.158;17.118;2022-12-18T08:26:30;-0.30;73.70
14877;DHT22;22152;48.158;17.118;2022-12-18T08:28:57;-0.20;74.10
14877;DHT22;22152;48.158;17.118;2022-12-18T08:31:25;-0.10;74.20
14877;DHT22;22152;48.158;17.118;2022-12-18T08:33:53;0.20;73.90
14877;DHT22;22152;48.158;17.118;2022-12-18T08:36:19;0.30;73.00
14877;DHT22;22152;48.158;17.118;2022-12-18T08:38:46;0.40;73.90
14877;DHT22;22152;48.158;17.118;2022-12-18T08:41:14;0.50;73.20
14877;DHT22;22152;48.158;17.118;2022-12-18T08:43:41;0.70;72.80
14877;DHT22;22152;48.158;17.118;2022-12-18T08:46:30;0.90;72.40
14877;DHT22;22152;48.158;17.118;2022-12-18T08:49:01;1.00;72.30
14877;DHT22;22152;48.158;17.118;2022-12-18T08:51:27;1.00;71.80
14877;DHT22;22152;48.158;17.118;2022-12-18T08:53:53;1.10;71.60
14877;DHT22;22152;48.158;17.118;2022-12-18T08:56:19;1.10;71.40
14877;DHT22;22152;48.158;17.118;2022-12-18T08:58:44;1.20;71.50
14877;DHT22;22152;48.158;17.118;2022-12-18T09:01:12;1.30;71.10
14877;DHT22;22152;48.158;17.118;2022-12-18T09:03:39;1.40;70.80
14877;DHT22;22152;48.158;17.118;2022-12-18T09:06:05;1.50;70.50
14877;DHT22;22152;48.158;17.118;2022-12-18T09:08:32;1.50;69.70
14877;DHT22;22152;48.158;17.118;2022-12-18T09:11:02;1.50;69.60
14877;DHT22;22152;48.158;17.118;2022-12-18T09:13:28;1.60;69.30
14877;DHT22;22152;48.158;17.118;2022-12-18T09:15:55;1.70;69.50
14877;DHT22;22152;48.158;17.118;2022-12-18T09:18:22;1.90;69.40
14877;DHT22;22152;48.158;17.118;2022-12-18T09:20:49;2.00;68.20
14877;DHT22;22152;48.158;17.118;2022-12-18T09:23:18;2.00;68.30
14877;DHT22;22152;48.158;17.118;2022-12-18T09:25:44;2.10;68.40
14877;DHT22;22152;48.158;17.118;2022-12-18T09:28:15;2.20;68.60
14877;DHT22;22152;48.158;17.118;2022-12-18T09:30:44;2.40;68.30
14877;DHT22;22152;48.158;17.118;2022-12-18T09:33:12;2.60;67.80
14877;DHT22;22152;48.158;17.118;2022-12-18T09:35:38;2.70;67.70
14877;DHT22;22152;48.158;17.118;2022-12-18T09:38:05;2.90;66.80
14877;DHT22;22152;48.158;17.118;2022-12-18T09:40:40;3.10;66.60
14877;DHT22;22152;48.158;17.118;2022-12-18T09:43:19;3.10;66.00
14877;DHT22;22152;48.158;17.118;2022-12-18T09:45:53;3.20;65.70
14877;DHT22;22152;48.158;17.118;2022-12-18T09:48:27;3.00;64.40
14877;DHT22;22152;48.158;17.118;2022-12-18T09:51:02;3.00;64.10
14877;DHT22;22152;48.158;17.118;2022-12-18T09:53:34;3.00;64.00
14877;DHT22;22152;48.158;17.118;2022-12-18T09:56:01;3.20;63.60
14877;DHT22;22152;48.158;17.118;2022-12-18T09:58:42;3.20;63.30
14877;DHT22;22152;48.158;17.118;2022-12-18T10:01:14;3.30;62.80
14877;DHT22;22152;48.158;17.118;2022-12-18T10:03:44;3.40;62.70
14877;DHT22;22152;48.158;17.118;2022-12-18T10:09:23;3.40;61.70
14877;DHT22;22152;48.158;17.118;2022-12-18T10:15:14;3.40;61.40
14877;DHT22;22152;48.158;17.118;2022-12-18T10:21:13;3.50;61.10
14877;DHT22;22152;48.158;17.118;2022-12-18T10:26:49;3.30;60.70
14877;DHT22;22152;48.158;17.118;2022-12-18T10:29:16;3.20;60.60
14877;DHT22;22152;48.158;17.118;2022-12-18T10:31:42;3.20;60.50
14877;DHT22;22152;48.158;17.118;2022-12-18T10:34:12;3.10;60.00
14877;DHT22;22152;48.158;17.118;2022-12-18T10:36:41;3.00;60.20
14877;DHT22;22152;48.158;17.118;2022-12-18T10:41:41;2.80;60.60
14877;DHT22;22152;48.158;17.118;2022-12-18T10:46:48;2.70;60.30
14877;DHT22;22152;48.158;17.118;2022-12-18T10:49:31;2.60;60.50
14877;DHT22;22152;48.158;17.118;2022-12-18T10:54:57;2.30;60.80
14877;DHT22;22152;48.158;17.118;2022-12-18T10:57:29;2.20;61.00
14877;DHT22;22152;48.158;17.118;2022-12-18T11:00:24;2.20;61.30
14877;DHT22;22152;48.158;17.118;2022-12-18T11:02:50;2.20;61.50
14877;DHT22;22152;48.158;17.118;2022-12-18T11:08:02;2.30;61.50
14877;DHT22;22152;48.158;17.118;2022-12-18T11:10:34;2.20;61.40
14877;DHT22;22152;48.158;17.118;2022-12-18T11:13:25;2.30;62.00
14877;DHT22;22152;48.158;17.118;2022-12-18T11:15:52;2.40;61.50
14877;DHT22;22152;48.158;17.118;2022-12-18T11:18:33;2.40;61.40
14877;DHT22;22152;48.158;17.118;2022-12-18T11:21:08;2.60;61.80
14877;DHT22;22152;48.158;17.118;2022-12-18T11:23:37;2.70;61.40
14877;DHT22;22152;48.158;17.118;2022-12-18T11:26:13;2.70;60.90
14877;DHT22;22152;48.158;17.118;2022-12-18T11:28:51;2.60;60.70
14877;DHT22;22152;48.158;17.118;2022-12-18T11:31:24;2.60;60.60
14877;DHT22;22152;48.158;17.118;2022-12-18T11:36:48;2.60;61.40
14877;DHT22;22152;48.158;17.118;2022-12-18T11:50:46;2.60;61.60
14877;DHT22;22152;48.158;17.118;2022-12-18T11:53:16;2.50;61.40
14877;DHT22;22152;48.158;17.118;2022-12-18T12:02:10;2.20;61.80
14877;DHT22;22152;48.158;17.118;2022-12-18T12:18:56;2.20;62.50
14877;DHT22;22152;48.158;17.118;2022-12-18T12:21:45;2.30;62.30
14877;DHT22;22152;48.158;17.118;2022-12-18T12:24:39;2.20;62.20
14877;DHT22;22152;48.158;17.118;2022-12-18T12:31:01;2.00;62.40
14877;DHT22;22152;48.158;17.118;2022-12-18T12:33:50;2.00;62.70
14877;DHT22;22152;48.158;17.118;2022-12-18T12:36:45;1.80;63.00
14877;DHT22;22152;48.158;17.118;2022-12-18T12:39:23;1.80;63.50
14877;DHT22;22152;48.158;17.118;2022-12-18T12:41:54;1.80;63.50
14877;DHT22;22152;48.158;17.118;2022-12-18T12:44:43;1.90;63.40
14877;DHT22;22152;48.158;17.118;2022-12-18T12:47:22;1.90;63.20
14877;DHT22;22152;48.158;17.118;2022-12-18T12:49:54;1.90;63.90
14877;DHT22;22152;48.158;17.118;2022-12-18T12:52:42;1.90;63.50
14877;DHT22;22152;48.158;17.118;2022-12-18T12:55:23;1.90;63.60
14877;DHT22;22152;48.158;17.118;2022-12-18T13:01:01;2.00;64.00
14877;DHT22;22152;48.158;17.118;2022-12-18T13:03:57;1.90;63.70
14877;DHT22;22152;48.158;17.118;2022-12-18T13:09:18;1.90;63.70
14877;DHT22;22152;48.158;17.118;2022-12-18T13:11:47;1.90;63.90
14877;DHT22;22152;48.158;17.118;2022-12-18T13:14:37;1.80;63.90
14877;DHT22;22152;48.158;17.118;2022-12-18T13:17:34;1.90;64.00
14877;DHT22;22152;48.158;17.118;2022-12-18T13:20:12;1.80;63.90
14877;DHT22;22152;48.158;17.118;2022-12-18T13:22:48;1.80;64.00
14877;DHT22;22152;48.158;17.118;2022-12-18T13:25:32;1.80;64.00
14877;DHT22;22152;48.158;17.118;2022-12-18T13:28:12;1.70;64.10
14877;DHT22;22152;48.158;17.118;2022-12-18T13:30:50;1.80;64.20
14877;DHT22;22152;48.158;17.118;2022-12-18T13:38:34;1.80;64.10
14877;DHT22;22152;48.158;17.118;2022-12-18T13:41:02;1.80;64.20
14877;DHT22;22152;48.158;17.118;2022-12-18T13:46:30;1.70;64.10
14877;DHT22;22152;48.158;17.118;2022-12-18T13:51:59;1.60;64.40
14877;DHT22;22152;48.158;17.118;2022-12-18T13:54:35;1.60;64.50
14877;DHT22;22152;48.158;17.118;2022-12-18T13:57:03;1.50;64.50
14877;DHT22;22152;48.158;17.118;2022-12-18T13:59:39;1.40;64.70
14877;DHT22;22152;48.158;17.118;2022-12-18T14:02:16;1.30;65.00
14877;DHT22;22152;48.158;17.118;2022-12-18T14:04:48;1.30;65.10
14877;DHT22;22152;48.158;17.118;2022-12-18T14:07:32;1.30;65.10
14877;DHT22;22152;48.158;17.118;2022-12-18T14:09:59;1.30;65.20
14877;DHT22;22152;48.158;17.118;2022-12-18T14:12:27;1.30;65.20
14877;DHT22;22152;48.158;17.118;2022-12-18T14:20:27;1.10;65.80
14877;DHT22;22152;48.158;17.118;2022-12-18T14:22:54;1.10;65.80
14877;DHT22;22152;48.158;17.118;2022-12-18T14:25:29;1.10;65.90
14877;DHT22;22152;48.158;17.118;2022-12-18T14:30:42;0.90;66.20
14877;DHT22;22152;48.158;17.118;2022-12-18T14:33:16;0.90;66.40
14877;DHT22;22152;48.158;17.118;2022-12-18T14:35:59;0.80;66.60
14877;DHT22;22152;48.158;17.118;2022-12-18T14:38:38;0.80;67.00
14877;DHT22;22152;48.158;17.118;2022-12-18T14:41:09;0.80;66.90
14877;DHT22;22152;48.158;17.118;2022-12-18T14:43:39;0.80;67.00
14877;DHT22;22152;48.158;17.118;2022-12-18T14:46:27;0.80;67.00
14877;DHT22;22152;48.158;17.118;2022-12-18T14:51:56;0.70;67.00
14877;DHT22;22152;48.158;17.118;2022-12-18T14:54:28;0.70;67.30
14877;DHT22;22152;48.158;17.118;2022-12-18T14:57:02;0.60;67.30
14877;DHT22;22152;48.158;17.118;2022-12-18T14:59:30;0.70;67.40
14877;DHT22;22152;48.158;17.118;2022-12-18T15:04:46;0.60;67.20
14877;DHT22;22152;48.158;17.118;2022-12-18T15:07:23;0.50;67.40
14877;DHT22;22152;48.158;17.118;2022-12-18T15:12:36;0.50;68.10
14877;DHT22;22152;48.158;17.118;2022-12-18T15:15:04;0.40;67.90
14877;DHT22;22152;48.158;17.118;2022-12-18T15:17:30;0.40;68.00
14877;DHT22;22152;48.158;17.118;2022-12-18T15:20:09;0.40;68.30
14877;DHT22;22152;48.158;17.118;2022-12-18T15:22:37;0.40;68.70
14877;DHT22;22152;48.158;17.118;2022-12-18T15:25:54;0.40;69.20
14877;DHT22;22152;48.158;17.118;2022-12-18T15:34:28;0.70;70.30
14877;DHT22;22152;48.158;17.118;2022-12-18T15:36:37;0.80;70.00
14877;DHT22;22152;48.158;17.118;2022-12-18T15:39:03;0.90;69.90
14877;DHT22;22152;48.158;17.118;2022-12-18T15:41:31;1.00;69.70
14877;DHT22;22152;48.158;17.118;2022-12-18T15:43:59;1.00;69.20
14877;DHT22;22152;48.158;17.118;2022-12-18T15:46:25;1.00;69.00
14877;DHT22;22152;48.158;17.118;2022-12-18T15:48:54;1.00;69.00
14877;DHT22;22152;48.158;17.118;2022-12-18T15:51:23;1.00;69.00
14877;DHT22;22152;48.158;17.118;2022-12-18T15:53:54;0.90;69.00
14877;DHT22;22152;48.158;17.118;2022-12-18T15:56:22;0.80;68.70
14877;DHT22;22152;48.158;17.118;2022-12-18T15:59:10;0.70;68.80
14877;DHT22;22152;48.158;17.118;2022-12-18T16:01:39;0.60;69.30
14877;DHT22;22152;48.158;17.118;2022-12-18T16:04:05;0.60;70.00
14877;DHT22;22152;48.158;17.118;2022-12-18T16:06:31;0.70;70.40
14877;DHT22;22152;48.158;17.118;2022-12-18T16:08:57;0.80;70.50
14877;DHT22;22152;48.158;17.118;2022-12-18T16:11:31;0.80;70.30
14877;DHT22;22152;48.158;17.118;2022-12-18T16:16:43;1.10;69.90
14877;DHT22;22152;48.158;17.118;2022-12-18T16:19:08;1.10;69.90
14877;DHT22;22152;48.158;17.118;2022-12-18T16:21:34;1.10;69.80
14877;DHT22;22152;48.158;17.118;2022-12-18T16:24:00;1.20;69.60
14877;DHT22;22152;48.158;17.118;2022-12-18T16:26:26;1.20;69.60
14877;DHT22;22152;48.158;17.118;2022-12-18T16:28:52;1.10;69.40
14877;DHT22;22152;48.158;17.118;2022-12-18T16:31:19;1.20;69.50
14877;DHT22;22152;48.158;17.118;2022-12-18T16:33:44;1.20;69.50
14877;DHT22;22152;48.158;17.118;2022-12-18T16:36:10;1.30;69.50
14877;DHT22;22152;48.158;17.118;2022-12-18T16:38:36;1.30;69.60
14877;DHT22;22152;48.158;17.118;2022-12-18T16:41:18;1.40;69.40
14877;DHT22;22152;48.158;17.118;2022-12-18T16:43:56;1.50;69.00
14877;DHT22;22152;48.158;17.118;2022-12-18T16:46:23;1.50;68.90
14877;DHT22;22152;48.158;17.118;2022-12-18T16:48:48;1.50;68.80
14877;DHT22;22152;48.158;17.118;2022-12-18T16:51:14;1.50;68.60
14877;DHT22;22152;48.158;17.118;2022-12-18T16:53:40;1.50;68.60
14877;DHT22;22152;48.158;17.118;2022-12-18T16:56:06;1.50;68.40
14877;DHT22;22152;48.158;17.118;2022-12-18T16:58:32;1.60;68.40
14877;DHT22;22152;48.158;17.118;2022-12-18T17:00:58;1.60;68.30
14877;DHT22;22152;48.158;17.118;2022-12-18T17:03:25;1.50;68.10
14877;DHT22;22152;48.158;17.118;2022-12-18T17:05:52;1.50;68.20
14877;DHT22;22152;48.158;17.118;2022-12-18T17:08:17;1.60;68.20
14877;DHT22;22152;48.158;17.118;2022-12-18T17:10:43;1.50;68.00
14877;DHT22;22152;48.158;17.118;2022-12-18T17:13:09;1.50;68.30
14877;DHT22;22152;48.158;17.118;2022-12-18T17:15:35;1.50;68.30
14877;DHT22;22152;48.158;17.118;2022-12-18T17:18:02;1.50;68.50
14877;DHT22;22152;48.158;17.118;2022-12-18T17:20:29;1.60;68.60
14877;DHT22;22152;48.158;17.118;2022-12-18T17:22:55;1.60;68.00
14877;DHT22;22152;48.158;17.118;2022-12-18T17:25:23;1.60;68.00
14877;DHT22;22152;48.158;17.118;2022-12-18T17:27:50;1.50;67.80
14877;DHT22;22152;48.158;17.118;2022-12-18T17:30:16;1.60;68.00
14877;DHT22;22152;48.158;17.118;2022-12-18T17:32:42;1.60;68.10
14877;DHT22;22152;48.158;17.118;2022-12-18T17:35:08;1.60;68.00
14877;DHT22;22152;48.158;17.118;2022-12-18T17:37:34;1.60;67.80
14877;DHT22;22152;48.158;17.118;2022-12-18T17:40:00;1.70;67.80
14877;DHT22;22152;48.158;17.118;2022-12-18T17:42:26;1.70;67.80
14877;DHT22;22152;48.158;17.118;2022-12-18T17:44:51;1.70;67.80
14877;DHT22;22152;48.158;17.118;2022-12-18T17:47:17;1.70;67.30
14877;DHT22;22152;48.158;17.118;2022-12-18T17:49:43;1.60;67.40
14877;DHT22;22152;48.158;17.118;2022-12-18T17:52:09;1.50;67.60
14877;DHT22;22152;48.158;17.118;2022-12-18T17:54:35;1.60;67.80
14877;DHT22;22152;48.158;17.118;2022-12-18T17:57:04;1.60;67.80
14877;DHT22;22152;48.158;17.118;2022-12-18T17:59:30;1.50;67.60